Time;durP1;ratioP1;P1;durP2;ratioP2;P2;SDS_P1;SDS_P2;PMS_P1;PMS_P2;Temp;Humidity;BMP_temperature;BMP_pressure;BME280_temperature;BME280_humidity;BME280_pressure;Samples;Min_cycle;Max_cycle;Signal;HPM_P1;HPM_P2
2022/02/21 00:01:57;;;;;;;;;;;;;;;;;;5093690;28;19915;-69
2022/02/21 00:04:23;;;;;;;;;;;;;;;;;;5093683;28;19935;-69
2022/02/21 00:06:49;;;;;;;;;;;;;;;;;;5093575;28;19908;-70
2022/02/21 00:09:15;;;;;;;;;;;;;;;;;;5093652;28;20405;-69
2022/02/21 00:11:41;;;;;;;;;;;;;;;;;;5093411;28;19912;-69
2022/02/21 00:14:07;;;;;;;;;;;;;;;;;;5093554;28;19990;-69
2022/02/21 00:16:33;;;;;;;;;;;;;;;;;;5075361;28;19912;-69
2022/02/21 00:18:59;;;;;;;;;;;;;;;;;;5093211;28;19919;-69
2022/02/21 00:21:25;;;;;;;;;;;;;;;;;;5093447;28;20284;-69
2022/02/21 00:23:51;;;;;;;;;;;;;;;;;;5094797;28;19916;-69
2022/02/21 00:26:18;;;;;;;;;;;;;;;;;;5096926;28;20286;-69
2022/02/21 00:28:44;;;;;;;;;;;;;;;;;;5097740;28;19959;-69
2022/02/21 00:31:10;;;;;;;;;;;;;;;;;;5097211;28;19908;-69
2022/02/21 00:33:36;;;;;;;;;;;;;;;;;;5078752;28;20012;-70
2022/02/21 00:36:02;;;;;;;;;;;;;;;;;;5097175;28;19914;-70
2022/02/21 00:38:28;;;;;;;;;;;;;;;;;;5096815;28;20014;-69
2022/02/21 00:40:54;;;;;;;;;;;;;;;;;;5078443;28;19908;-69
2022/02/21 00:43:20;;;;;;;;;;;;;;;;;;5078628;28;19908;-70
2022/02/21 00:45:46;;;;;;;;;;;;;;;;;;5097429;28;19934;-69
2022/02/21 00:48:12;;;;;;;;;;;;;;;;;;5096488;28;19908;-68
2022/02/21 00:50:38;;;;;;;;;;;;;;;;;;5078665;28;20288;-69
2022/02/21 00:53:04;;;;;;;;;;;;;;;;;;5097195;28;19954;-69
2022/02/21 00:55:36;;;;;;;;;;;;;;;;;;5078208;28;19931;-69
2022/02/21 00:58:02;;;;;;;;;;;;;;;;;;5078482;28;19916;-70
2022/02/21 01:00:28;;;;;;;;;;;;;;;;;;5078457;28;19915;-69
2022/02/21 01:02:54;;;;;;;;;;;;;;;;;;5096259;28;19986;-69
2022/02/21 01:05:20;;;;;;;;;;;;;;;;;;5078482;28;20005;-71
2022/02/21 01:07:46;;;;;;;;;;;;;;;;;;5096500;28;19912;-69
2022/02/21 01:10:12;;;;;;;;;;;;;;;;;;5096111;28;19908;-69
2022/02/21 01:12:38;;;;;;;;;;;;;;;;;;5096483;28;20253;-69
2022/02/21 01:15:04;;;;;;;;;;;;;;;;;;5095993;28;19961;-69
2022/02/21 01:17:30;;;;;;;;;;;;;;;;;;5096293;28;19916;-69
2022/02/21 01:19:56;;;;;;;;;;;;;;;;;;5096705;28;19934;-69
2022/02/21 01:22:22;;;;;;;;;;;;;;;;;;5077719;28;19961;-69
2022/02/21 01:24:48;;;;;;;;;;;;;;;;;;5096262;28;19908;-68
2022/02/21 01:27:14;;;;;;;;;;;;;;;;;;5078340;28;19950;-69
2022/02/21 01:29:40;;;;;;;;;;;;;;;;;;5095684;28;19908;-69
2022/02/21 01:32:06;;;;;;;;;;;;;;;;;;5096452;28;19997;-69
2022/02/21 01:34:32;;;;;;;;;;;;;;;;;;5095862;28;19912;-69
2022/02/21 01:36:58;;;;;;;;;;;;;;;;;;5095402;28;19990;-69
2022/02/21 01:39:24;;;;;;;;;;;;;;;;;;5095921;28;19912;-69
2022/02/21 01:41:50;;;;;;;;;;;;;;;;;;5095936;28;20268;-69
2022/02/21 01:44:16;;;;;;;;;;;;;;;;;;5077260;28;19916;-69
2022/02/21 01:46:42;;;;;;;;;;;;;;;;;;5077661;28;19953;-69
2022/02/21 01:49:08;;;;;;;;;;;;;;;;;;5077615;28;19931;-69
2022/02/21 01:51:34;;;;;;;;;;;;;;;;;;5095364;28;20376;-69
2022/02/21 01:54:00;;;;;;;;;;;;;;;;;;5095836;28;19912;-69
2022/02/21 01:56:26;;;;;;;;;;;;;;;;;;5095549;28;19911;-69
2022/02/21 01:58:52;;;;;;;;;;;;;;;;;;5095230;28;20002;-69
2022/02/21 02:01:18;;;;;;;;;;;;;;;;;;5095832;28;20398;-69
2022/02/21 02:03:44;;;;;;;;;;;;;;;;;;5095444;28;19908;-69
2022/02/21 02:06:10;;;;;;;;;;;;;;;;;;5095077;28;19908;-69
2022/02/21 02:08:36;;;;;;;;;;;;;;;;;;5095374;28;19919;-69
2022/02/21 02:11:02;;;;;;;;;;;;;;;;;;5095551;28;19908;-69
2022/02/21 02:13:28;;;;;;;;;;;;;;;;;;5094859;28;19916;-69
2022/02/21 02:15:54;;;;;;;;;;;;;;;;;;5095209;28;19908;-69
2022/02/21 02:18:21;;;;;;;;;;;;;;;;;;5094676;28;19917;-69
2022/02/21 02:20:47;;;;;;;;;;;;;;;;;;5095357;28;19915;-69
2022/02/21 02:23:13;;;;;;;;;;;;;;;;;;5095081;28;19908;-69
2022/02/21 02:25:39;;;;;;;;;;;;;;;;;;5094840;28;19915;-69
2022/02/21 02:28:05;;;;;;;;;;;;;;;;;;5076836;28;19951;-69
2022/02/21 02:30:31;;;;;;;;;;;;;;;;;;5094893;28;19908;-69
2022/02/21 02:32:57;;;;;;;;;;;;;;;;;;5094487;28;19953;-69
2022/02/21 02:35:23;;;;;;;;;;;;;;;;;;5094836;28;19963;-69
2022/02/21 02:37:49;;;;;;;;;;;;;;;;;;5094715;28;20356;-69
2022/02/21 02:40:15;;;;;;;;;;;;;;;;;;5094703;28;19940;-69
2022/02/21 02:42:41;;;;;;;;;;;;;;;;;;5076540;28;19943;-69
2022/02/21 02:45:07;;;;;;;;;;;;;;;;;;5076468;28;20007;-69
2022/02/21 02:47:33;;;;;;;;;;;;;;;;;;5093839;28;19933;-69
2022/02/21 02:49:59;;;;;;;;;;;;;;;;;;5095035;28;19908;-69
2022/02/21 02:52:25;;;;;;;;;;;;;;;;;;5094568;28;20275;-69
2022/02/21 02:54:51;;;;;;;;;;;;;;;;;;5094134;28;19995;-69
2022/02/21 02:57:17;;;;;;;;;;;;;;;;;;5094498;28;19919;-69
2022/02/21 02:59:43;;;;;;;;;;;;;;;;;;5076243;28;20357;-69
2022/02/21 03:02:09;;;;;;;;;;;;;;;;;;5093915;28;19962;-69
2022/02/21 03:04:35;;;;;;;;;;;;;;;;;;5094901;28;20357;-69
2022/02/21 03:07:01;;;;;;;;;;;;;;;;;;5076135;28;19915;-68
2022/02/21 03:09:27;;;;;;;;;;;;;;;;;;5093979;28;20420;-68
2022/02/21 03:11:53;;;;;;;;;;;;;;;;;;5094771;28;20002;-68
2022/02/21 03:14:19;;;;;;;;;;;;;;;;;;5094487;28;19954;-69
2022/02/21 03:16:45;;;;;;;;;;;;;;;;;;5093741;28;20058;-69
2022/02/21 03:19:11;;;;;;;;;;;;;;;;;;5094128;28;20391;-69
2022/02/21 03:21:37;;;;;;;;;;;;;;;;;;5093771;28;19935;-69
2022/02/21 03:24:03;;;;;;;;;;;;;;;;;;5076014;28;19995;-69
2022/02/21 03:26:29;;;;;;;;;;;;;;;;;;5094058;28;19908;-69
2022/02/21 03:28:55;;;;;;;;;;;;;;;;;;5093812;28;19908;-69
2022/02/21 03:31:21;;;;;;;;;;;;;;;;;;5094639;28;19908;-69
2022/02/21 03:33:47;;;;;;;;;;;;;;;;;;5094014;28;19916;-69
2022/02/21 03:36:13;;;;;;;;;;;;;;;;;;5075314;28;19908;-69
2022/02/21 03:38:39;;;;;;;;;;;;;;;;;;5093926;28;20291;-69
2022/02/21 03:41:05;;;;;;;;;;;;;;;;;;5094082;28;19912;-69
2022/02/21 03:43:31;;;;;;;;;;;;;;;;;;5093443;28;19970;-69
2022/02/21 03:45:57;;;;;;;;;;;;;;;;;;5093796;28;19908;-69
2022/02/21 03:48:23;;;;;;;;;;;;;;;;;;5093860;28;19987;-69
2022/02/21 03:50:49;;;;;;;;;;;;;;;;;;5075394;28;19960;-69
2022/02/21 03:53:15;;;;;;;;;;;;;;;;;;5093764;28;19955;-69
2022/02/21 03:55:41;;;;;;;;;;;;;;;;;;5093837;28;19916;-68
2022/02/21 03:58:07;;;;;;;;;;;;;;;;;;5093463;28;19917;-69
2022/02/21 04:00:33;;;;;;;;;;;;;;;;;;5097931;28;20375;-69
2022/02/21 04:02:59;;;;;;;;;;;;;;;;;;5098041;28;19950;-69
2022/02/21 04:05:25;;;;;;;;;;;;;;;;;;5079216;28;20368;-69
2022/02/21 04:07:51;;;;;;;;;;;;;;;;;;5098267;28;20046;-69
2022/02/21 04:10:18;;;;;;;;;;;;;;;;;;5079510;28;19957;-68
2022/02/21 04:12:44;;;;;;;;;;;;;;;;;;5097216;28;19961;-69
2022/02/21 04:15:11;;;;;;;;;;;;;;;;;;5097586;28;20002;-68
2022/02/21 04:17:37;;;;;;;;;;;;;;;;;;5097785;28;19916;-69
2022/02/21 04:20:03;;;;;;;;;;;;;;;;;;5097097;28;19995;-69
2022/02/21 04:22:29;;;;;;;;;;;;;;;;;;5079496;28;19908;-69
2022/02/21 04:24:55;;;;;;;;;;;;;;;;;;5096989;28;19914;-69
2022/02/21 04:27:21;;;;;;;;;;;;;;;;;;5097514;28;19912;-69
2022/02/21 04:29:47;;;;;;;;;;;;;;;;;;5097585;28;19934;-69
2022/02/21 04:32:13;;;;;;;;;;;;;;;;;;5096936;28;19908;-69
2022/02/21 04:34:39;;;;;;;;;;;;;;;;;;5097228;28;20391;-69
2022/02/21 04:37:05;;;;;;;;;;;;;;;;;;5096849;28;19959;-68
2022/02/21 04:39:31;;;;;;;;;;;;;;;;;;5096935;28;19939;-68
2022/02/21 04:41:57;;;;;;;;;;;;;;;;;;5097440;28;20362;-69
2022/02/21 04:44:23;;;;;;;;;;;;;;;;;;5078752;28;20023;-68
2022/02/21 04:46:49;;;;;;;111.72;103.68;;;;;;;;;;5095885;28;20396;-68
2022/02/21 04:49:15;;;;;;;334.33;274.17;;;;;;;;;;5078296;28;20407;-68
2022/02/21 04:51:42;;;;;;;12.02;6.80;;;;;;;;;;5096529;28;20087;-69
2022/02/21 04:54:08;;;;;;;267.58;180.10;;;;;;;;;;5096481;28;20499;-69
2022/02/21 04:56:34;;;;;;;822.03;476.73;;;;;;;;;;5096284;28;20062;-69
2022/02/21 04:59:00;;;;;;;844.20;511.95;;;;;;;;;;5096505;28;20582;-69
2022/02/21 05:01:26;;;;;;;843.45;547.03;;;;;;;;;;5095847;28;20045;-68
2022/02/21 05:03:53;;;;;;;730.30;522.47;;;;;;;;;;5096165;28;20031;-69
2022/02/21 05:06:19;;;;;;;800.85;572.53;;;;;;;;;;5096031;28;20027;-69
2022/02/21 05:08:45;;;;;;;878.45;558.85;;;;;;;;;;5077390;28;20016;-69
2022/02/21 05:11:11;;;;;;;821.35;446.63;;;;;;;;;;5095650;28;20102;-69
2022/02/21 05:13:39;;;;;;;807.55;429.50;;;;;;;;;;5096321;28;20353;-69
2022/02/21 05:16:06;;;;;;;791.20;436.90;;;;;;;;;;5095610;28;20558;-70
2022/02/21 05:18:32;;;;;;;761.45;502.92;;;;;;;;;;5095823;28;20401;-69
2022/02/21 05:20:58;;;;;;;769.97;424.40;;;;;;;;;;5077759;28;20378;-69
2022/02/21 05:23:25;;;;;;;899.10;515.50;;;;;;;;;;5077493;28;20541;-69
2022/02/21 05:25:51;;;;;;;726.50;409.45;;;;;;;;;;5095764;28;20108;-72
2022/02/21 05:28:17;;;;;;;735.90;405.58;;;;;;;;;;5095264;28;20020;-71
2022/02/21 05:30:43;;;;;;;719.05;406.73;;;;;;;;;;5095719;28;20020;-81
2022/02/21 05:33:13;;;;;;;746.97;402.63;;;;;;;;;;5077490;28;20107;-82
2022/02/21 05:35:40;;;;;;;730.97;397.92;;;;;;;;;;5077243;28;20086;-81
2022/02/21 05:38:06;;;;;;;729.05;407.52;;;;;;;;;;5095374;28;20098;-81
2022/02/21 05:40:32;;;;;;;702.72;411.25;;;;;;;;;;5095552;28;20162;-82
2022/02/21 05:42:58;;;;;;;740.60;447.10;;;;;;;;;;5095112;28;20071;-81
2022/02/21 05:45:24;;;;;;;638.17;390.05;;;;;;;;;;5095448;28;20020;-81
2022/02/21 05:47:51;;;;;;;665.67;399.85;;;;;;;;;;5095402;28;20383;-80
2022/02/21 05:50:17;;;;;;;614.55;388.70;;;;;;;;;;5094943;28;20025;-83
2022/02/21 05:52:43;;;;;;;671.72;398.33;;;;;;;;;;5095239;28;20028;-79
2022/02/21 05:55:09;;;;;;;693.28;396.30;;;;;;;;;;5077091;28;20016;-81
2022/02/21 05:57:36;;;;;;;650.00;381.98;;;;;;;;;;5076630;28;20047;-82
2022/02/21 06:00:02;;;;;;;664.75;387.50;;;;;;;;;;5089196;28;20024;-82
2022/02/21 06:02:29;;;;;;;651.53;380.83;;;;;;;;;;5074198;28;20020;-80
2022/02/21 06:04:55;;;;;;;676.85;392.45;;;;;;;;;;5099246;28;20046;-80
2022/02/21 06:07:21;;;;;;;692.50;396.15;;;;;;;;;;5104823;28;20020;-80
2022/02/21 06:09:48;;;;;;;891.70;562.78;;;;;;;;;;5103340;28;20051;-80
2022/02/21 06:12:14;;;;;;;599.92;387.52;;;;;;;;;;5093774;28;20046;-80
2022/02/21 06:14:40;;;;;;;637.28;390.13;;;;;;;;;;5093092;28;20099;-80
2022/02/21 06:17:06;;;;;;;667.00;373.90;;;;;;;;;;5090462;28;20096;-78
2022/02/21 06:19:32;;;;;;;673.38;375.73;;;;;;;;;;5071697;28;20028;-82
2022/02/21 06:22:01;;;;;;;699.63;403.50;;;;;;;;;;5089077;28;20043;-75
2022/02/21 06:24:27;;;;;;;703.67;413.85;;;;;;;;;;5092524;28;20561;-76
2022/02/21 06:26:53;;;;;;;682.83;408.05;;;;;;;;;;5093190;28;20032;-78
2022/02/21 06:29:20;;;;;;;690.38;415.85;;;;;;;;;;5093202;28;20024;-77
2022/02/21 06:31:47;;;;;;;866.30;526.47;;;;;;;;;;5074564;28;20035;-72
2022/02/21 06:34:13;;;;;;;;;;;;;;;;;;5074251;28;20384;-74
2022/02/21 06:36:39;;;;;;;;;;;;;;;;;;5091295;28;19915;-76
2022/02/21 06:39:05;;;;;;;;;;;;;;;;;;5072703;28;19908;-76
2022/02/21 06:41:31;;;;;;;;;;;;;;;;;;5090986;28;19999;-74
2022/02/21 06:43:57;;;;;;;;;;;;;;;;;;5091534;28;19908;-77
2022/02/21 06:46:23;;;;;;;;;;;;;;;;;;5090654;28;19904;-76
2022/02/21 06:48:49;;;;;;;;;;;;;;;;;;5091159;28;19904;-75
2022/02/21 06:51:15;;;;;;;;;;;;;;;;;;5092371;28;19904;-74
2022/02/21 06:53:41;;;;;;;;;;;;;;;;;;5093538;28;19907;-74
2022/02/21 06:56:07;;;;;;;;;;;;;;;;;;5093998;28;19912;-74
2022/02/21 06:58:33;;;;;;;;;;;;;;;;;;5093729;28;20241;-78
2022/02/21 07:00:59;;;;;;;;;;;;;;;;;;5093548;28;20389;-73
2022/02/21 07:03:25;;;;;;;;;;;;;;;;;;5075565;28;20007;-72
2022/02/21 07:05:51;;;;;;;;;;;;;;;;;;5075536;28;19911;-79
2022/02/21 07:08:17;;;;;;;;;;;;;;;;;;5075327;28;19911;-79
2022/02/21 07:10:43;;;;;;;;;;;;;;;;;;5093583;28;20318;-76
2022/02/21 07:13:09;;;;;;;;;;;;;;;;;;5093827;28;20287;-78
2022/02/21 07:15:35;;;;;;;;;;;;;;;;;;5092629;28;19963;-78
2022/02/21 07:18:01;;;;;;;;;;;;;;;;;;5089255;28;20371;-81
2022/02/21 07:20:27;;;;;;;;;;;;;;;;;;5093464;28;19904;-74
2022/02/21 07:22:53;;;;;;;;;;;;;;;;;;5074964;28;19915;-75
2022/02/21 07:25:19;;;;;;;;;;;;;;;;;;5074787;28;19904;-75
2022/02/21 07:27:45;;;;;;;;;;;;;;;;;;5092585;28;19935;-78
2022/02/21 07:30:11;;;;;;;;;;;;;;;;;;5093585;28;19904;-77
2022/02/21 07:32:37;;;;;;;;;;;;;;;;;;5092944;28;19908;-77
2022/02/21 07:35:04;;;;;;;;;;;;;;;;;;5074308;28;19957;-87
2022/02/21 07:37:30;;;;;;;;;;;;;;;;;;5092622;28;19920;-76
2022/02/21 07:39:56;;;;;;;;;;;;;;;;;;5092484;28;19957;-77
2022/02/21 07:42:23;;;;;;;;;;;;;;;;;;5092202;28;19908;-77
2022/02/21 07:44:51;;;;;;;;;;;;;;;;;;5092757;28;20518;-75
2022/02/21 07:47:17;;;;;;;;;;;;;;;;;;5093274;28;19990;-78
2022/02/21 07:49:42;;;;;;;;;;;;;;;;;;5092560;28;20324;-78
2022/02/21 07:52:08;;;;;;;;;;;;;;;;;;5093158;28;19954;-80
2022/02/21 07:54:34;;;;;;;;;;;;;;;;;;5091770;28;19904;-78
2022/02/21 07:57:01;;;;;;;;;;;;;;;;;;5084230;28;19919;-79
2022/02/21 07:59:27;;;;;;;;;;;;;;;;;;5073171;28;19904;-77
2022/02/21 08:01:53;;;;;;;;;;;;;;;;;;5092553;28;19908;-79
2022/02/21 08:04:19;;;;;;;;;;;;;;;;;;5092420;28;19903;-77
2022/02/21 08:06:46;;;;;;;;;;;;;;;;;;5074387;28;20297;-77
2022/02/21 08:09:12;;;;;;;;;;;;;;;;;;5074385;28;20360;-80
2022/02/21 08:11:38;;;;;;;;;;;;;;;;;;5091801;28;19912;-77
2022/02/21 08:14:05;;;;;;;;;;;;;;;;;;5092913;28;19904;-77
2022/02/21 08:16:31;;;;;;;;;;;;;;;;;;5076299;28;19911;-75
2022/02/21 08:18:57;;;;;;;;;;;;;;;;;;5073931;28;19965;-77
2022/02/21 08:21:23;;;;;;;;;;;;;;;;;;5072942;28;19904;-78
2022/02/21 08:23:49;;;;;;;;;;;;;;;;;;5073140;28;19908;-77
2022/02/21 08:26:15;;;;;;;;;;;;;;;;;;5072408;28;20391;-77
2022/02/21 08:28:41;;;;;;;;;;;;;;;;;;5090557;28;20011;-76
2022/02/21 08:31:07;;;;;;;;;;;;;;;;;;5072448;28;19995;-75
2022/02/21 08:33:33;;;;;;;;;;;;;;;;;;5092045;28;20287;-77
2022/02/21 08:39:31;;;;;;;;;;;;;;;;;;5108527;27;19913;-76
2022/02/21 08:44:12;;;;;;;;;;;;;;;;;;5088260;27;19923;-78
2022/02/21 08:46:38;;;;;;;;;;;;;;;;;;5087059;28;19913;-79
2022/02/21 08:49:04;;;;;;;;;;;;;;;;;;5088976;28;19909;-77
2022/02/21 08:51:30;;;;;;;;;;;;;;;;;;5088220;28;19908;-75
2022/02/21 08:53:56;;;;;;;;;;;;;;;;;;5090200;28;20400;-75
2022/02/21 08:56:22;;;;;;;;;;;;;;;;;;5090124;28;20008;-77
2022/02/21 08:59:01;;;;;;;;;;;;;;;;;;5151633;27;19975;-75
2022/02/21 09:01:27;;;;;;;;;;;;;;;;;;5151978;27;20252;-78
2022/02/21 09:03:53;;;;;;;;;;;;;;;;;;5151855;27;20263;-76
2022/02/21 09:10:01;;;;;;;;;;;;;;;;;;5090791;27;20372;-78
2022/02/21 09:16:06;;;;;;;;;;;;;;;;;;5111274;27;19912;-77
2022/02/21 09:19:09;;;;;;;;;;;;;;;;;;5090368;27;19916;-75
2022/02/21 09:21:35;;;;;;;;;;;;;;;;;;5089779;28;20347;-77
2022/02/21 09:24:50;;;;;;;;;;;;;;;;;;5090612;27;19922;-76
2022/02/21 09:27:37;;;;;;;;;;;;;;;;;;5090014;27;19912;-76
2022/02/21 09:33:40;;;;;;;;;;;;;;;;;;5110916;27;19920;-75
2022/02/21 09:36:06;;;;;;;;;;;;;;;;;;5110575;28;19916;-77
2022/02/21 09:42:29;;;;;;;;;;;;;;;;;;5110202;27;19916;-76
2022/02/21 09:45:48;;;;;;;;;;;;;;;;;;5107979;27;19924;-76
2022/02/21 09:48:15;;;;;;;;;;;;;;;;;;5110527;28;20345;-77
2022/02/21 09:52:31;;;;;;;;;;;;;;;;;;5110879;27;20334;-75
2022/02/21 09:54:59;;;;;;;;;;;;;;;;;;5110962;28;20407;-78
2022/02/21 09:57:25;;;;;;;;;;;;;;;;;;5110663;28;19912;-77
2022/02/21 09:59:51;;;;;;;;;;;;;;;;;;5109340;28;19926;-76
2022/02/21 10:02:17;;;;;;;;;;;;;;;;;;5110428;28;19951;-76
2022/02/21 10:04:43;;;;;;;;;;;;;;;;;;5110694;28;20002;-74
2022/02/21 10:09:41;;;;;;;;;;;;;;;;;;5110608;27;19920;-74
2022/02/21 10:13:13;;;;;;;;;;;;;;;;;;5110621;27;19916;-76
2022/02/21 10:15:39;;;;;;;;;;;;;;;;;;5108153;28;19916;-76
2022/02/21 10:18:05;;;;;;;;;;;;;;;;;;5109252;28;19908;-75
2022/02/21 10:20:31;;;;;;;;;;;;;;;;;;5109154;28;19962;-74
2022/02/21 10:23:16;;;;;;;;;;;;;;;;;;5109999;27;19918;-76
2022/02/21 10:28:16;;;;;;;;;;;;;;;;;;5110253;27;19916;-75
2022/02/21 10:30:42;;;;;;;;;;;;;;;;;;5108789;28;19916;-75
2022/02/21 10:35:47;;;;;;;;;;;;;;;;;;5128845;27;19918;-73
2022/02/21 10:38:13;;;;;;;;;;;;;;;;;;5129475;28;20456;-76
2022/02/21 10:40:40;;;;;;;;;;;;;;;;;;5112070;28;19914;-77
2022/02/21 10:43:06;;;;;;;;;;;;;;;;;;5129897;28;19952;-76
2022/02/21 10:46:11;;;;;;;;;;;;;;;;;;5088744;28;19913;-74
2022/02/21 10:51:53;;;;;;;;;;;;;;;;;;5088416;28;19916;-74
2022/02/21 10:54:19;;;;;;;;;;;;;;;;;;5089515;28;19912;-74
2022/02/21 10:56:45;;;;;;;;;;;;;;;;;;5087712;28;19960;-74
2022/02/21 10:59:11;;;;;;;;;;;;;;;;;;5087495;28;19991;-74
2022/02/21 11:06:46;;;;;;;;;;;;;;;;;;5110055;27;19919;-74
2022/02/21 11:09:12;;;;;;;;;;;;;;;;;;5107220;28;19912;-75
2022/02/21 11:11:38;;;;;;;;;;;;;;;;;;5110207;28;19908;-74
2022/02/21 11:14:04;;;;;;;;;;;;;;;;;;5101579;28;19930;-76
2022/02/21 11:16:30;;;;;;;;;;;;;;;;;;5109143;28;19912;-76
2022/02/21 11:18:56;;;;;;;;;;;;;;;;;;5108329;28;19961;-75
2022/02/21 11:21:23;;;;;;;;;;;;;;;;;;5105788;28;19953;-73
2022/02/21 11:23:49;;;;;;;;;;;;;;;;;;5100674;28;19953;-75
2022/02/21 11:26:16;;;;;;;;;;;;;;;;;;5107928;28;19920;-74
2022/02/21 11:32:01;;;;;;;;;;;;;;;;;;5090340;27;19916;-75
2022/02/21 11:34:27;;;;;;;;;;;;;;;;;;5089951;28;19996;-75
2022/02/21 11:36:57;;;;;;;;;;;;;;;;;;5088578;28;19999;-76
2022/02/21 11:39:24;;;;;;;;;;;;;;;;;;5087486;28;20523;-73
2022/02/21 11:41:50;;;;;;;;;;;;;;;;;;5089555;28;20358;-76
2022/02/21 11:44:16;;;;;;;;;;;;;;;;;;5088602;28;19915;-76
2022/02/21 11:46:42;;;;;;;;;;;;;;;;;;5088471;28;19912;-74
2022/02/21 11:49:08;;;;;;;;;;;;;;;;;;5088585;28;19908;-76
2022/02/21 11:51:34;;;;;;;;;;;;;;;;;;5090445;28;19924;-76
2022/02/21 11:54:00;;;;;;;;;;;;;;;;;;5090579;28;20457;-76
2022/02/21 11:56:26;;;;;;;;;;;;;;;;;;5090230;28;19912;-75
2022/02/21 11:58:52;;;;;;;;;;;;;;;;;;5086558;28;19919;-75
2022/02/21 12:01:20;;;;;;;;;;;;;;;;;;5090086;28;20061;-76
2022/02/21 12:03:46;;;;;;;;;;;;;;;;;;5089692;28;19919;-74
2022/02/21 12:06:12;;;;;;;;;;;;;;;;;;5089100;28;19915;-75
2022/02/21 12:08:38;;;;;;;;;;;;;;;;;;5090040;28;19909;-74
2022/02/21 12:11:04;;;;;;;;;;;;;;;;;;5088262;28;19923;-74
2022/02/21 12:13:30;;;;;;;;;;;;;;;;;;5085700;28;19922;-76
2022/02/21 12:15:56;;;;;;;;;;;;;;;;;;5089105;28;19970;-74
2022/02/21 12:18:23;;;;;;;;;;;;;;;;;;5089120;28;19912;-74
2022/02/21 12:20:49;;;;;;;;;;;;;;;;;;5089874;28;20275;-73
2022/02/21 12:23:15;;;;;;;13.52;5.22;;;;;;;;;;5088252;28;20494;-76
2022/02/21 12:25:42;;;;;;;6.65;2.85;;;;;;;;;;5089214;28;20476;-73
2022/02/21 12:29:39;;;;;;;5.35;2.70;;;;;;;;;;5070117;28;20433;-73
2022/02/21 12:32:07;;;;;;;7.63;3.42;;;;;;;;;;5069681;28;20025;-74
2022/02/21 12:34:34;;;;;;;7.85;3.20;;;;;;;;;;5070099;28;20025;-73
2022/02/21 12:37:23;;;;;;;4.93;2.50;;;;;;;;;;5108552;27;21062;-74
2022/02/21 12:39:49;;;;;;;6.53;2.53;;;;;;;;;;5117422;28;20039;-73
2022/02/21 12:42:21;;;;;;;6.07;2.42;;;;;;;;;;5109046;28;20063;-74
2022/02/21 12:44:47;;;;;;;9.32;4.15;;;;;;;;;;5109450;28;20361;-74
2022/02/21 12:47:13;;;;;;;5.95;3.10;;;;;;;;;;5110187;28;20501;-74
2022/02/21 12:49:48;;;;;;;6.78;2.88;;;;;;;;;;5109394;28;20031;-73
2022/02/21 12:52:14;;;;;;;6.13;2.63;;;;;;;;;;5110307;28;20016;-75
2022/02/21 12:54:57;;;;;;;6.43;2.60;;;;;;;;;;5110741;28;20467;-76
2022/02/21 12:57:27;;;;;;;6.80;2.20;;;;;;;;;;5110528;28;20064;-74
2022/02/21 12:59:54;;;;;;;6.25;2.97;;;;;;;;;;5100798;28;20034;-75
2022/02/21 13:02:21;;;;;;;7.38;2.53;;;;;;;;;;5108715;28;20030;-76
2022/02/21 13:04:48;;;;;;;7.10;2.33;;;;;;;;;;5110207;28;20031;-75
2022/02/21 13:07:14;;;;;;;7.38;2.97;;;;;;;;;;5109648;28;20480;-75
2022/02/21 13:09:41;;;;;;;6.85;2.88;;;;;;;;;;5109971;28;20050;-74
2022/02/21 13:12:17;;;;;;;9.15;2.83;;;;;;;;;;5109827;28;20399;-74
2022/02/21 13:14:44;;;;;;;5.93;3.15;;;;;;;;;;5109085;28;20020;-74
2022/02/21 13:17:14;;;;;;;7.10;3.38;;;;;;;;;;5109778;28;20114;-74
2022/02/21 13:19:43;;;;;;;6.75;3.45;;;;;;;;;;5102779;28;20031;-74
2022/02/21 13:22:56;;;;;;;8.48;3.05;;;;;;;;;;5110012;27;20477;-73
2022/02/21 13:25:22;;;;;;;5.85;2.70;;;;;;;;;;5110199;28;20032;-74
2022/02/21 13:28:23;;;;;;;10.05;2.95;;;;;;;;;;5108700;27;20477;-73
2022/02/21 13:30:49;;;;;;;7.13;3.35;;;;;;;;;;5110351;28;20035;-73
2022/02/21 13:33:15;;;;;;;6.38;2.67;;;;;;;;;;5110071;28;20103;-74
2022/02/21 13:35:57;;;;;;;6.22;3.08;;;;;;;;;;5110702;28;20094;-75
2022/02/21 13:40:29;;;;;;;6.47;2.92;;;;;;;;;;5070082;28;20425;-75
2022/02/21 13:42:56;;;;;;;6.80;3.17;;;;;;;;;;5070219;28;20025;-75
2022/02/21 13:45:25;;;;;;;10.70;4.03;;;;;;;;;;5068824;28;20060;-75
2022/02/21 13:48:11;;;;;;;7.38;3.13;;;;;;;;;;5069454;28;20029;-74
2022/02/21 13:50:56;;;;;;;9.02;4.63;;;;;;;;;;5070142;28;20036;-74
2022/02/21 13:53:22;;;;;;;10.60;5.07;;;;;;;;;;5070127;28;20549;-77
2022/02/21 13:56:13;;;;;;;7.40;3.25;;;;;;;;;;5110643;27;20901;-79
2022/02/21 14:02:03;;;;;;;5.40;2.40;;;;;;;;;;5110765;27;20412;-73
2022/02/21 14:04:29;;;;;;;6.43;2.60;;;;;;;;;;5111120;28;20036;-71
2022/02/21 14:06:56;;;;;;;9.05;3.72;;;;;;;;;;5111099;28;20023;-74
2022/02/21 14:09:44;;;;;;;3.35;1.75;;;;;;;;;;5110780;27;20381;-73
2022/02/21 14:12:14;;;;;;;2.95;1.33;;;;;;;;;;5110991;28;20444;-73
2022/02/21 14:14:40;;;;;;;4.07;2.17;;;;;;;;;;5110826;28;20077;-73
2022/02/21 14:17:07;;;;;;;4.13;2.30;;;;;;;;;;5110642;28;20044;-73
2022/02/21 14:19:33;;;;;;;4.43;1.90;;;;;;;;;;5109534;28;20024;-73
2022/02/21 14:23:16;;;;;;;3.97;2.00;;;;;;;;;;5110445;27;20313;-73
2022/02/21 14:25:43;;;;;;;5.15;2.00;;;;;;;;;;5109603;28;20495;-75
2022/02/21 14:28:09;;;;;;;11.57;1.77;;;;;;;;;;5108384;28;20037;-75
2022/02/21 14:34:26;;;;;;;3.92;1.63;;;;;;;;;;5071064;28;20395;-74
2022/02/21 14:39:31;;;;;;;64.30;37.72;;;;;;;;;;5071393;28;20426;-73
2022/02/21 14:42:48;;;;;;;5.15;2.65;;;;;;;;;;5111928;27;20430;-75
2022/02/21 14:45:14;;;;;;;5.47;1.67;;;;;;;;;;5109592;28;20027;-74
2022/02/21 14:47:40;;;;;;;3.88;1.95;;;;;;;;;;5111151;28;20098;-73
2022/02/21 14:52:06;;;;;;;4.88;1.80;;;;;;;;;;5111111;27;20411;-75
2022/02/21 14:54:33;;;;;;;5.82;2.83;;;;;;;;;;5127123;28;20027;-75
2022/02/21 14:56:59;;;;;;;8.93;4.13;;;;;;;;;;5111322;28;20376;-76
2022/02/21 14:59:25;;;;;;;5.75;2.72;;;;;;;;;;5110872;28;20024;-76
2022/02/21 15:02:20;;;;;;;4.93;2.45;;;;;;;;;;5111129;27;20324;-73
2022/02/21 15:04:46;;;;;;;5.63;3.30;;;;;;;;;;5109612;28;20414;-75
2022/02/21 15:07:13;;;;;;;5.40;2.75;;;;;;;;;;5111084;28;20073;-73
2022/02/21 15:10:59;;;;;;;3.92;1.80;;;;;;;;;;5069864;28;20430;-75
2022/02/21 15:14:54;;;;;;;6.30;3.05;;;;;;;;;;5109467;27;20306;-75
2022/02/21 15:17:21;;;;;;;5.43;2.15;;;;;;;;;;5109168;28;20032;-75
2022/02/21 15:23:30;;;;;;;8.93;2.92;;;;;;;;;;5110042;27;20427;-75
2022/02/21 15:28:05;;;;;;;7.43;3.70;;;;;;;;;;5110003;27;20310;-73
2022/02/21 15:30:31;;;;;;;11.77;7.38;;;;;;;;;;5107817;28;20445;-73
2022/02/21 15:32:57;;;;;;;8.00;3.90;;;;;;;;;;5108844;28;20692;-73
2022/02/21 15:35:24;;;;;;;8.63;4.43;;;;;;;;;;5109046;28;20024;-74
2022/02/21 15:37:50;;;;;;;7.45;3.67;;;;;;;;;;5108869;28;20035;-74
2022/02/21 15:41:08;;;;;;;20.05;10.52;;;;;;;;;;5108921;27;20830;-73
2022/02/21 15:43:35;;;;;;;9.50;4.22;;;;;;;;;;5109875;28;20107;-73
2022/02/21 15:46:37;;;;;;;9.52;4.75;;;;;;;;;;5109840;27;20776;-75
2022/02/21 15:49:04;;;;;;;11.13;6.10;;;;;;;;;;5109481;28;20433;-73
2022/02/21 15:52:44;;;;;;;11.77;6.00;;;;;;;;;;5111626;27;20473;-73
2022/02/21 15:55:10;;;;;;;9.60;5.00;;;;;;;;;;5110945;28;20044;-73
2022/02/21 15:59:41;;;;;;;13.68;6.20;;;;;;;;;;5070544;27;20426;-74
2022/02/21 16:02:51;;;;;;;11.70;5.95;;;;;;;;;;5070352;28;20387;-74
2022/02/21 16:06:38;;;;;;;12.18;6.25;;;;;;;;;;5111335;27;20389;-73
2022/02/21 16:09:05;;;;;;;10.88;4.32;;;;;;;;;;5110838;28;20380;-73
2022/02/21 16:12:15;;;;;;;9.07;4.50;;;;;;;;;;5071319;28;20446;-73
2022/02/21 16:14:41;;;;;;;8.73;4.07;;;;;;;;;;5070465;28;20099;-73
2022/02/21 16:17:07;;;;;;;9.63;5.03;;;;;;;;;;5070081;28;20024;-74
2022/02/21 16:20:39;;;;;;;23.40;17.38;;;;;;;;;;5111179;27;20416;-75
2022/02/21 16:25:06;;;;;;;17.40;7.90;;;;;;;;;;5111769;27;20446;-75
2022/02/21 16:28:38;;;;;;;15.18;9.25;;;;;;;;;;5111498;27;20477;-74
2022/02/21 16:31:04;;;;;;;13.32;8.07;;;;;;;;;;5110817;28;20031;-73
2022/02/21 16:35:38;;;;;;;10.57;5.88;;;;;;;;;;5070815;27;20395;-74
2022/02/21 16:40:34;;;;;;;21.30;14.32;;;;;;;;;;5111692;27;20408;-74
2022/02/21 16:43:00;;;;;;;15.00;9.07;;;;;;;;;;5111627;28;20028;-74
2022/02/21 16:45:26;;;;;;;15.25;7.25;;;;;;;;;;5110749;28;20099;-75
2022/02/21 16:47:53;;;;;;;13.88;6.85;;;;;;;;;;5126959;28;20031;-75
2022/02/21 16:50:19;;;;;;;11.27;6.80;;;;;;;;;;5110668;28;20031;-73
2022/02/21 16:53:48;;;;;;;11.07;4.78;;;;;;;;;;5071482;28;20387;-73
2022/02/21 16:59:31;;;;;;;10.13;6.70;;;;;;;;;;5070162;28;20457;-75
2022/02/21 17:05:32;;;;;;;14.77;9.38;;;;;;;;;;5110836;27;20310;-74
2022/02/21 17:07:58;;;;;;;26.77;13.93;;;;;;;;;;5111015;28;20036;-75
2022/02/21 17:12:04;;;;;;;23.23;12.32;;;;;;;;;;5070772;28;20391;-74
2022/02/21 17:15:53;;;;;;;23.50;13.00;;;;;;;;;;5071382;28;20469;-75
2022/02/21 17:18:20;;;;;;;17.75;9.27;;;;;;;;;;5070643;28;20040;-76
2022/02/21 17:20:47;;;;;;;14.48;8.75;;;;;;;;;;5070554;28;20032;-75
2022/02/21 17:23:35;;;;;;;21.02;11.32;;;;;;;;;;5111341;27;20384;-74
2022/02/21 17:26:41;;;;;;;21.35;10.88;;;;;;;;;;5111030;27;20400;-73